sensor_id;sensor_type;location;lat;lon;timestamp;P1;durP1;ratioP1;P2;durP2;ratioP2
15104;SDS011;7653;48.994;9.212;2023-05-09T00:02:18;20.50;;;16.77;;
15104;SDS011;7653;48.994;9.212;2023-05-09T00:04:44;19.20;;;15.83;;
15104;SDS011;7653;48.994;9.212;2023-05-09T00:07:10;19.37;;;15.83;;
15104;SDS011;7653;48.994;9.212;2023-05-09T00:09:36;18.23;;;15.47;;
15104;SDS011;7653;48.994;9.212;2023-05-09T00:12:02;18.57;;;16.00;;
15104;SDS011;7653;48.994;9.212;2023-05-09T00:14:28;20.93;;;17.50;;
15104;SDS011;7653;48.994;9.212;2023-05-09T00:16:53;21.47;;;18.30;;
15104;SDS011;7653;48.994;9.212;2023-05-09T00:19:21;26.13;;;18.93;;
15104;SDS011;7653;48.994;9.212;2023-05-09T00:21:46;24.97;;;20.07;;
15104;SDS011;7653;48.994;9.212;2023-05-09T00:24:12;23.73;;;19.77;;
15104;SDS011;7653;48.994;9.212;2023-05-09T00:26:37;21.17;;;18.40;;
15104;SDS011;7653;48.994;9.212;2023-05-09T00:29:03;19.83;;;17.70;;
15104;SDS011;7653;48.994;9.212;2023-05-09T00:31:29;22.77;;;16.17;;
15104;SDS011;7653;48.994;9.212;2023-05-09T00:33:55;19.20;;;16.03;;
15104;SDS011;7653;48.994;9.212;2023-05-09T00:36:21;17.20;;;15.37;;
15104;SDS011;7653;48.994;9.212;2023-05-09T00:38:47;16.17;;;14.37;;
15104;SDS011;7653;48.994;9.212;2023-05-09T00:41:13;17.20;;;14.73;;
15104;SDS011;7653;48.994;9.212;2023-05-09T00:43:38;16.43;;;14.63;;
15104;SDS011;7653;48.994;9.212;2023-05-09T00:46:04;16.67;;;14.47;;
15104;SDS011;7653;48.994;9.212;2023-05-09T00:48:30;17.53;;;14.80;;
15104;SDS011;7653;48.994;9.212;2023-05-09T00:50:56;19.40;;;15.40;;
15104;SDS011;7653;48.994;9.212;2023-05-09T00:53:21;19.63;;;16.03;;
15104;SDS011;7653;48.994;9.212;2023-05-09T00:55:49;17.80;;;15.67;;
15104;SDS011;7653;48.994;9.212;2023-05-09T00:58:15;18.90;;;15.83;;
15104;SDS011;7653;48.994;9.212;2023-05-09T01:00:41;18.50;;;15.70;;
15104;SDS011;7653;48.994;9.212;2023-05-09T01:03:07;19.63;;;16.60;;
15104;SDS011;7653;48.994;9.212;2023-05-09T01:05:42;19.53;;;16.00;;
15104;SDS011;7653;48.994;9.212;2023-05-09T01:08:19;19.43;;;16.63;;
15104;SDS011;7653;48.994;9.212;2023-05-09T01:13:58;18.87;;;16.87;;
15104;SDS011;7653;48.994;9.212;2023-05-09T01:21:39;19.80;;;16.47;;
15104;SDS011;7653;48.994;9.212;2023-05-09T01:24:24;17.43;;;15.53;;
15104;SDS011;7653;48.994;9.212;2023-05-09T01:29:56;21.07;;;15.30;;
15104;SDS011;7653;48.994;9.212;2023-05-09T01:32:25;17.90;;;15.27;;
15104;SDS011;7653;48.994;9.212;2023-05-09T01:34:53;19.13;;;14.40;;
15104;SDS011;7653;48.994;9.212;2023-05-09T01:37:27;19.83;;;14.47;;
15104;SDS011;7653;48.994;9.212;2023-05-09T01:39:56;19.40;;;15.77;;
15104;SDS011;7653;48.994;9.212;2023-05-09T01:42:31;20.73;;;15.97;;
15104;SDS011;7653;48.994;9.212;2023-05-09T01:45:06;22.57;;;17.37;;
15104;SDS011;7653;48.994;9.212;2023-05-09T01:47:34;20.17;;;16.53;;
15104;SDS011;7653;48.994;9.212;2023-05-09T01:50:01;18.83;;;16.70;;
15104;SDS011;7653;48.994;9.212;2023-05-09T01:52:28;21.60;;;17.07;;
15104;SDS011;7653;48.994;9.212;2023-05-09T01:54:54;20.60;;;17.63;;
15104;SDS011;7653;48.994;9.212;2023-05-09T01:57:22;21.03;;;16.83;;
15104;SDS011;7653;48.994;9.212;2023-05-09T01:59:48;22.13;;;17.40;;
15104;SDS011;7653;48.994;9.212;2023-05-09T02:02:15;22.00;;;17.47;;
15104;SDS011;7653;48.994;9.212;2023-05-09T02:04:41;19.83;;;17.17;;
15104;SDS011;7653;48.994;9.212;2023-05-09T02:07:08;20.60;;;16.83;;
15104;SDS011;7653;48.994;9.212;2023-05-09T02:09:34;19.03;;;17.03;;
15104;SDS011;7653;48.994;9.212;2023-05-09T02:12:00;21.07;;;17.33;;
15104;SDS011;7653;48.994;9.212;2023-05-09T02:14:28;23.97;;;17.17;;
15104;SDS011;7653;48.994;9.212;2023-05-09T02:16:54;19.60;;;15.53;;
15104;SDS011;7653;48.994;9.212;2023-05-09T02:19:20;21.03;;;16.70;;
15104;SDS011;7653;48.994;9.212;2023-05-09T02:21:45;19.73;;;16.57;;
15104;SDS011;7653;48.994;9.212;2023-05-09T02:24:11;19.00;;;16.27;;
15104;SDS011;7653;48.994;9.212;2023-05-09T02:26:37;20.63;;;16.03;;
15104;SDS011;7653;48.994;9.212;2023-05-09T02:29:05;19.97;;;17.30;;
15104;SDS011;7653;48.994;9.212;2023-05-09T02:31:31;20.87;;;16.73;;
15104;SDS011;7653;48.994;9.212;2023-05-09T02:33:59;20.23;;;17.63;;
15104;SDS011;7653;48.994;9.212;2023-05-09T02:36:26;21.27;;;18.07;;
15104;SDS011;7653;48.994;9.212;2023-05-09T02:38:52;22.03;;;19.13;;
15104;SDS011;7653;48.994;9.212;2023-05-09T02:41:18;22.37;;;19.60;;
15104;SDS011;7653;48.994;9.212;2023-05-09T02:43:44;23.77;;;19.80;;
15104;SDS011;7653;48.994;9.212;2023-05-09T02:46:10;22.07;;;18.80;;
15104;SDS011;7653;48.994;9.212;2023-05-09T02:48:35;22.53;;;20.13;;
15104;SDS011;7653;48.994;9.212;2023-05-09T02:51:01;22.63;;;19.37;;
15104;SDS011;7653;48.994;9.212;2023-05-09T02:53:27;20.70;;;17.67;;
15104;SDS011;7653;48.994;9.212;2023-05-09T02:55:52;23.40;;;19.10;;
15104;SDS011;7653;48.994;9.212;2023-05-09T02:58:18;20.10;;;17.63;;
15104;SDS011;7653;48.994;9.212;2023-05-09T03:00:44;19.70;;;16.70;;
15104;SDS011;7653;48.994;9.212;2023-05-09T03:03:10;21.30;;;15.60;;
15104;SDS011;7653;48.994;9.212;2023-05-09T03:05:36;18.17;;;15.47;;
15104;SDS011;7653;48.994;9.212;2023-05-09T03:08:02;18.10;;;15.90;;
15104;SDS011;7653;48.994;9.212;2023-05-09T03:10:28;18.47;;;16.37;;
15104;SDS011;7653;48.994;9.212;2023-05-09T03:12:53;21.57;;;16.30;;
15104;SDS011;7653;48.994;9.212;2023-05-09T03:15:19;17.13;;;15.33;;
15104;SDS011;7653;48.994;9.212;2023-05-09T03:17:45;16.53;;;14.83;;
15104;SDS011;7653;48.994;9.212;2023-05-09T03:20:11;16.07;;;14.47;;
15104;SDS011;7653;48.994;9.212;2023-05-09T03:22:37;16.40;;;14.23;;
15104;SDS011;7653;48.994;9.212;2023-05-09T03:25:03;20.77;;;16.57;;
15104;SDS011;7653;48.994;9.212;2023-05-09T03:27:31;20.00;;;16.27;;
15104;SDS011;7653;48.994;9.212;2023-05-09T03:29:57;21.37;;;18.03;;
15104;SDS011;7653;48.994;9.212;2023-05-09T03:32:22;18.50;;;16.50;;
15104;SDS011;7653;48.994;9.212;2023-05-09T03:34:48;19.70;;;16.83;;
15104;SDS011;7653;48.994;9.212;2023-05-09T03:37:14;21.93;;;17.03;;
15104;SDS011;7653;48.994;9.212;2023-05-09T03:39:39;20.43;;;16.47;;
15104;SDS011;7653;48.994;9.212;2023-05-09T03:42:05;25.50;;;18.63;;
15104;SDS011;7653;48.994;9.212;2023-05-09T03:44:31;25.87;;;18.80;;
15104;SDS011;7653;48.994;9.212;2023-05-09T03:46:56;22.30;;;17.60;;
15104;SDS011;7653;48.994;9.212;2023-05-09T03:49:22;18.80;;;16.17;;
15104;SDS011;7653;48.994;9.212;2023-05-09T03:51:47;16.27;;;14.57;;
15104;SDS011;7653;48.994;9.212;2023-05-09T03:54:13;19.90;;;15.33;;
15104;SDS011;7653;48.994;9.212;2023-05-09T03:56:39;23.43;;;18.33;;
15104;SDS011;7653;48.994;9.212;2023-05-09T03:59:04;28.00;;;19.80;;
15104;SDS011;7653;48.994;9.212;2023-05-09T04:01:30;25.63;;;21.27;;
15104;SDS011;7653;48.994;9.212;2023-05-09T04:03:56;29.43;;;20.97;;
15104;SDS011;7653;48.994;9.212;2023-05-09T04:06:21;26.80;;;21.07;;
15104;SDS011;7653;48.994;9.212;2023-05-09T04:08:47;27.67;;;20.73;;
15104;SDS011;7653;48.994;9.212;2023-05-09T04:11:13;22.13;;;18.60;;
15104;SDS011;7653;48.994;9.212;2023-05-09T04:13:39;23.00;;;17.07;;
15104;SDS011;7653;48.994;9.212;2023-05-09T04:16:05;24.97;;;18.37;;
15104;SDS011;7653;48.994;9.212;2023-05-09T04:18:30;22.97;;;18.40;;
15104;SDS011;7653;48.994;9.212;2023-05-09T04:20:56;24.40;;;19.33;;
15104;SDS011;7653;48.994;9.212;2023-05-09T04:23:21;23.83;;;19.57;;
15104;SDS011;7653;48.994;9.212;2023-05-09T04:25:47;23.70;;;19.37;;
15104;SDS011;7653;48.994;9.212;2023-05-09T04:28:16;21.40;;;17.90;;
15104;SDS011;7653;48.994;9.212;2023-05-09T04:30:41;21.37;;;18.43;;
15104;SDS011;7653;48.994;9.212;2023-05-09T04:33:07;22.93;;;18.30;;
15104;SDS011;7653;48.994;9.212;2023-05-09T04:35:33;23.43;;;18.07;;
15104;SDS011;7653;48.994;9.212;2023-05-09T04:37:58;21.77;;;18.70;;
15104;SDS011;7653;48.994;9.212;2023-05-09T04:40:24;22.70;;;17.77;;
15104;SDS011;7653;48.994;9.212;2023-05-09T04:42:50;23.60;;;18.80;;
15104;SDS011;7653;48.994;9.212;2023-05-09T04:45:16;21.37;;;18.03;;
15104;SDS011;7653;48.994;9.212;2023-05-09T04:47:41;21.80;;;18.23;;
15104;SDS011;7653;48.994;9.212;2023-05-09T04:50:07;22.80;;;19.30;;
15104;SDS011;7653;48.994;9.212;2023-05-09T04:52:34;22.67;;;18.67;;
15104;SDS011;7653;48.994;9.212;2023-05-09T04:54:59;23.90;;;20.33;;
15104;SDS011;7653;48.994;9.212;2023-05-09T04:57:26;24.37;;;19.60;;
15104;SDS011;7653;48.994;9.212;2023-05-09T04:59:51;23.73;;;18.90;;
15104;SDS011;7653;48.994;9.212;2023-05-09T05:02:17;21.57;;;18.77;;
15104;SDS011;7653;48.994;9.212;2023-05-09T05:04:43;26.43;;;21.27;;
15104;SDS011;7653;48.994;9.212;2023-05-09T05:07:09;25.20;;;21.63;;
15104;SDS011;7653;48.994;9.212;2023-05-09T05:09:34;24.70;;;20.27;;
15104;SDS011;7653;48.994;9.212;2023-05-09T05:12:00;24.67;;;20.83;;
15104;SDS011;7653;48.994;9.212;2023-05-09T05:14:25;25.57;;;21.10;;
15104;SDS011;7653;48.994;9.212;2023-05-09T05:16:51;25.30;;;21.10;;
15104;SDS011;7653;48.994;9.212;2023-05-09T05:19:17;25.13;;;20.20;;
15104;SDS011;7653;48.994;9.212;2023-05-09T05:21:42;26.67;;;20.00;;
15104;SDS011;7653;48.994;9.212;2023-05-09T05:24:08;27.20;;;20.70;;
15104;SDS011;7653;48.994;9.212;2023-05-09T05:26:33;26.70;;;21.27;;
15104;SDS011;7653;48.994;9.212;2023-05-09T05:28:59;27.27;;;20.43;;
15104;SDS011;7653;48.994;9.212;2023-05-09T05:31:25;27.50;;;21.53;;
15104;SDS011;7653;48.994;9.212;2023-05-09T05:33:50;27.13;;;21.30;;
15104;SDS011;7653;48.994;9.212;2023-05-09T05:36:16;27.70;;;21.90;;
15104;SDS011;7653;48.994;9.212;2023-05-09T05:38:42;26.10;;;21.60;;
15104;SDS011;7653;48.994;9.212;2023-05-09T05:41:07;25.37;;;21.00;;
15104;SDS011;7653;48.994;9.212;2023-05-09T05:43:35;27.93;;;22.50;;
15104;SDS011;7653;48.994;9.212;2023-05-09T05:46:01;27.47;;;21.37;;
15104;SDS011;7653;48.994;9.212;2023-05-09T05:48:27;28.87;;;21.53;;
15104;SDS011;7653;48.994;9.212;2023-05-09T05:50:52;28.47;;;22.83;;
15104;SDS011;7653;48.994;9.212;2023-05-09T05:53:18;23.87;;;20.60;;
15104;SDS011;7653;48.994;9.212;2023-05-09T05:55:44;27.07;;;21.53;;
15104;SDS011;7653;48.994;9.212;2023-05-09T05:58:10;27.73;;;22.57;;
15104;SDS011;7653;48.994;9.212;2023-05-09T06:00:36;33.27;;;23.20;;
15104;SDS011;7653;48.994;9.212;2023-05-09T06:03:01;32.07;;;23.10;;
15104;SDS011;7653;48.994;9.212;2023-05-09T06:05:27;34.37;;;22.90;;
15104;SDS011;7653;48.994;9.212;2023-05-09T06:07:53;29.60;;;23.97;;
15104;SDS011;7653;48.994;9.212;2023-05-09T06:10:18;31.00;;;23.53;;
15104;SDS011;7653;48.994;9.212;2023-05-09T06:12:44;28.57;;;22.80;;
15104;SDS011;7653;48.994;9.212;2023-05-09T06:15:10;30.37;;;22.53;;
15104;SDS011;7653;48.994;9.212;2023-05-09T06:17:35;33.03;;;22.60;;
15104;SDS011;7653;48.994;9.212;2023-05-09T06:20:01;30.03;;;22.60;;
15104;SDS011;7653;48.994;9.212;2023-05-09T06:22:27;29.43;;;22.50;;
15104;SDS011;7653;48.994;9.212;2023-05-09T06:24:53;28.90;;;21.40;;
15104;SDS011;7653;48.994;9.212;2023-05-09T06:27:18;30.93;;;22.33;;
15104;SDS011;7653;48.994;9.212;2023-05-09T06:29:44;27.60;;;22.77;;
15104;SDS011;7653;48.994;9.212;2023-05-09T06:32:09;26.70;;;20.60;;
15104;SDS011;7653;48.994;9.212;2023-05-09T06:34:35;28.83;;;21.47;;
15104;SDS011;7653;48.994;9.212;2023-05-09T06:37:01;23.80;;;20.70;;
15104;SDS011;7653;48.994;9.212;2023-05-09T06:39:27;26.20;;;22.00;;
15104;SDS011;7653;48.994;9.212;2023-05-09T06:41:52;24.90;;;20.93;;
15104;SDS011;7653;48.994;9.212;2023-05-09T06:44:18;26.53;;;21.63;;
15104;SDS011;7653;48.994;9.212;2023-05-09T06:46:43;27.27;;;21.27;;
15104;SDS011;7653;48.994;9.212;2023-05-09T06:49:09;24.73;;;20.97;;
15104;SDS011;7653;48.994;9.212;2023-05-09T06:51:37;28.40;;;21.63;;
15104;SDS011;7653;48.994;9.212;2023-05-09T06:54:03;28.23;;;20.87;;
15104;SDS011;7653;48.994;9.212;2023-05-09T06:56:28;23.83;;;20.47;;
15104;SDS011;7653;48.994;9.212;2023-05-09T06:58:55;23.67;;;20.80;;
15104;SDS011;7653;48.994;9.212;2023-05-09T07:01:20;25.37;;;20.27;;
15104;SDS011;7653;48.994;9.212;2023-05-09T07:03:46;25.43;;;20.37;;
15104;SDS011;7653;48.994;9.212;2023-05-09T07:06:12;22.87;;;19.47;;
15104;SDS011;7653;48.994;9.212;2023-05-09T07:08:38;26.93;;;20.70;;
15104;SDS011;7653;48.994;9.212;2023-05-09T07:11:03;23.33;;;19.23;;
15104;SDS011;7653;48.994;9.212;2023-05-09T07:13:29;22.27;;;19.87;;
15104;SDS011;7653;48.994;9.212;2023-05-09T07:15:55;29.07;;;20.67;;
15104;SDS011;7653;48.994;9.212;2023-05-09T07:18:21;25.77;;;20.63;;
15104;SDS011;7653;48.994;9.212;2023-05-09T07:20:46;23.07;;;20.57;;
15104;SDS011;7653;48.994;9.212;2023-05-09T07:23:12;24.97;;;20.47;;
15104;SDS011;7653;48.994;9.212;2023-05-09T07:25:37;23.03;;;20.00;;
15104;SDS011;7653;48.994;9.212;2023-05-09T07:28:03;24.80;;;20.50;;
15104;SDS011;7653;48.994;9.212;2023-05-09T07:30:29;23.93;;;19.97;;
15104;SDS011;7653;48.994;9.212;2023-05-09T07:32:55;23.63;;;18.97;;
15104;SDS011;7653;48.994;9.212;2023-05-09T07:35:20;24.53;;;20.33;;
15104;SDS011;7653;48.994;9.212;2023-05-09T07:37:46;26.00;;;19.83;;
15104;SDS011;7653;48.994;9.212;2023-05-09T07:40:12;25.67;;;19.70;;
15104;SDS011;7653;48.994;9.212;2023-05-09T07:42:38;23.47;;;19.90;;
15104;SDS011;7653;48.994;9.212;2023-05-09T07:45:04;24.67;;;18.93;;
15104;SDS011;7653;48.994;9.212;2023-05-09T07:47:30;22.87;;;19.63;;
15104;SDS011;7653;48.994;9.212;2023-05-09T07:49:56;24.77;;;19.43;;
15104;SDS011;7653;48.994;9.212;2023-05-09T07:52:22;23.30;;;19.17;;
15104;SDS011;7653;48.994;9.212;2023-05-09T07:54:48;24.70;;;19.57;;
15104;SDS011;7653;48.994;9.212;2023-05-09T07:57:13;21.60;;;19.23;;
15104;SDS011;7653;48.994;9.212;2023-05-09T07:59:40;22.80;;;18.43;;
15104;SDS011;7653;48.994;9.212;2023-05-09T08:02:06;23.43;;;18.53;;
15104;SDS011;7653;48.994;9.212;2023-05-09T08:04:32;21.70;;;19.27;;
15104;SDS011;7653;48.994;9.212;2023-05-09T08:06:58;20.90;;;18.10;;
15104;SDS011;7653;48.994;9.212;2023-05-09T08:09:23;21.23;;;18.43;;
15104;SDS011;7653;48.994;9.212;2023-05-09T08:11:50;24.23;;;18.77;;
15104;SDS011;7653;48.994;9.212;2023-05-09T08:14:16;26.57;;;19.13;;
15104;SDS011;7653;48.994;9.212;2023-05-09T08:16:41;20.03;;;17.20;;
15104;SDS011;7653;48.994;9.212;2023-05-09T08:19:07;19.30;;;17.20;;
15104;SDS011;7653;48.994;9.212;2023-05-09T08:21:33;19.57;;;16.83;;
15104;SDS011;7653;48.994;9.212;2023-05-09T08:23:59;19.53;;;16.83;;
15104;SDS011;7653;48.994;9.212;2023-05-09T08:26:25;19.03;;;16.50;;
15104;SDS011;7653;48.994;9.212;2023-05-09T08:28:51;19.33;;;17.17;;
15104;SDS011;7653;48.994;9.212;2023-05-09T08:31:18;19.83;;;16.27;;
15104;SDS011;7653;48.994;9.212;2023-05-09T08:33:43;17.40;;;15.60;;
15104;SDS011;7653;48.994;9.212;2023-05-09T08:36:09;18.53;;;15.77;;
15104;SDS011;7653;48.994;9.212;2023-05-09T08:38:35;18.43;;;14.93;;
15104;SDS011;7653;48.994;9.212;2023-05-09T08:41:03;18.97;;;15.43;;
15104;SDS011;7653;48.994;9.212;2023-05-09T08:43:28;20.27;;;14.93;;
15104;SDS011;7653;48.994;9.212;2023-05-09T08:45:57;17.87;;;14.97;;
15104;SDS011;7653;48.994;9.212;2023-05-09T08:48:25;17.37;;;15.37;;
15104;SDS011;7653;48.994;9.212;2023-05-09T08:50:52;17.40;;;15.60;;
15104;SDS011;7653;48.994;9.212;2023-05-09T08:53:20;18.47;;;15.13;;
15104;SDS011;7653;48.994;9.212;2023-05-09T08:55:52;17.43;;;14.93;;
15104;SDS011;7653;48.994;9.212;2023-05-09T08:58:18;15.77;;;13.67;;
15104;SDS011;7653;48.994;9.212;2023-05-09T09:00:46;16.20;;;14.50;;
15104;SDS011;7653;48.994;9.212;2023-05-09T09:03:14;16.07;;;13.93;;
15104;SDS011;7653;48.994;9.212;2023-05-09T09:05:41;16.57;;;14.03;;
15104;SDS011;7653;48.994;9.212;2023-05-09T09:08:07;16.47;;;13.73;;
15104;SDS011;7653;48.994;9.212;2023-05-09T09:10:34;15.93;;;14.00;;
15104;SDS011;7653;48.994;9.212;2023-05-09T09:13:04;17.77;;;15.00;;
15104;SDS011;7653;48.994;9.212;2023-05-09T09:15:34;14.90;;;13.40;;
15104;SDS011;7653;48.994;9.212;2023-05-09T09:18:07;16.87;;;13.43;;
15104;SDS011;7653;48.994;9.212;2023-05-09T09:20:47;15.40;;;13.60;;
15104;SDS011;7653;48.994;9.212;2023-05-09T09:23:17;16.27;;;13.80;;
15104;SDS011;7653;48.994;9.212;2023-05-09T09:25:45;15.77;;;13.77;;
15104;SDS011;7653;48.994;9.212;2023-05-09T09:28:11;14.63;;;12.33;;
15104;SDS011;7653;48.994;9.212;2023-05-09T09:30:42;13.63;;;12.23;;
15104;SDS011;7653;48.994;9.212;2023-05-09T09:33:09;14.03;;;12.47;;
15104;SDS011;7653;48.994;9.212;2023-05-09T09:35:42;14.17;;;12.77;;
15104;SDS011;7653;48.994;9.212;2023-05-09T09:38:08;13.70;;;12.30;;
15104;SDS011;7653;48.994;9.212;2023-05-09T09:40:33;15.00;;;13.50;;
15104;SDS011;7653;48.994;9.212;2023-05-09T09:43:02;15.27;;;13.73;;
15104;SDS011;7653;48.994;9.212;2023-05-09T09:45:31;15.13;;;13.03;;
15104;SDS011;7653;48.994;9.212;2023-05-09T09:47:57;14.77;;;13.20;;
15104;SDS011;7653;48.994;9.212;2023-05-09T09:50:22;15.27;;;12.00;;
15104;SDS011;7653;48.994;9.212;2023-05-09T09:52:50;14.00;;;12.53;;
15104;SDS011;7653;48.994;9.212;2023-05-09T09:55:17;14.50;;;12.97;;
15104;SDS011;7653;48.994;9.212;2023-05-09T09:57:43;16.27;;;12.43;;
15104;SDS011;7653;48.994;9.212;2023-05-09T10:00:14;16.30;;;12.93;;
15104;SDS011;7653;48.994;9.212;2023-05-09T10:02:47;15.73;;;14.03;;
15104;SDS011;7653;48.994;9.212;2023-05-09T10:07:55;14.83;;;13.30;;
15104;SDS011;7653;48.994;9.212;2023-05-09T10:10:24;13.83;;;12.33;;
15104;SDS011;7653;48.994;9.212;2023-05-09T10:12:55;16.30;;;11.77;;
15104;SDS011;7653;48.994;9.212;2023-05-09T10:15:22;13.07;;;11.57;;
15104;SDS011;7653;48.994;9.212;2023-05-09T10:17:55;12.70;;;11.40;;
15104;SDS011;7653;48.994;9.212;2023-05-09T10:20:23;14.93;;;10.87;;
15104;SDS011;7653;48.994;9.212;2023-05-09T10:22:50;11.47;;;10.37;;
15104;SDS011;7653;48.994;9.212;2023-05-09T10:25:21;11.97;;;10.63;;
15104;SDS011;7653;48.994;9.212;2023-05-09T10:28:11;9.67;;;8.77;;
15104;SDS011;7653;48.994;9.212;2023-05-09T10:30:48;10.50;;;9.40;;
15104;SDS011;7653;48.994;9.212;2023-05-09T10:33:15;9.83;;;8.93;;
15104;SDS011;7653;48.994;9.212;2023-05-09T10:35:46;7.90;;;7.20;;
15104;SDS011;7653;48.994;9.212;2023-05-09T10:38:12;7.40;;;6.70;;
15104;SDS011;7653;48.994;9.212;2023-05-09T10:40:41;8.07;;;6.80;;
15104;SDS011;7653;48.994;9.212;2023-05-09T10:43:10;8.83;;;6.27;;
15104;SDS011;7653;48.994;9.212;2023-05-09T10:45:36;6.77;;;6.10;;
15104;SDS011;7653;48.994;9.212;2023-05-09T10:48:03;6.20;;;5.60;;
15104;SDS011;7653;48.994;9.212;2023-05-09T10:50:32;5.80;;;5.27;;
15104;SDS011;7653;48.994;9.212;2023-05-09T10:55:34;6.57;;;5.97;;
15104;SDS011;7653;48.994;9.212;2023-05-09T11:00:48;6.13;;;5.30;;
15104;SDS011;7653;48.994;9.212;2023-05-09T11:03:14;5.17;;;4.27;;
15104;SDS011;7653;48.994;9.212;2023-05-09T11:05:43;4.17;;;3.80;;
15104;SDS011;7653;48.994;9.212;2023-05-09T11:08:20;5.23;;;4.73;;
15104;SDS011;7653;48.994;9.212;2023-05-09T11:10:53;5.87;;;4.70;;
15104;SDS011;7653;48.994;9.212;2023-05-09T11:13:29;4.50;;;4.10;;
15104;SDS011;7653;48.994;9.212;2023-05-09T11:16:02;4.47;;;4.07;;
15104;SDS011;7653;48.994;9.212;2023-05-09T11:18:29;4.57;;;4.17;;
15104;SDS011;7653;48.994;9.212;2023-05-09T11:20:56;4.53;;;4.13;;
15104;SDS011;7653;48.994;9.212;2023-05-09T11:23:26;4.40;;;3.87;;
15104;SDS011;7653;48.994;9.212;2023-05-09T11:26:04;7.63;;;4.43;;
15104;SDS011;7653;48.994;9.212;2023-05-09T11:28:34;5.68;;;4.00;;
15104;SDS011;7653;48.994;9.212;2023-05-09T11:51:27;4.57;;;4.05;;
15104;SDS011;7653;48.994;9.212;2023-05-09T11:53:53;4.10;;;3.80;;
15104;SDS011;7653;48.994;9.212;2023-05-09T11:56:18;4.13;;;3.80;;
15104;SDS011;7653;48.994;9.212;2023-05-09T11:58:48;5.43;;;4.17;;
15104;SDS011;7653;48.994;9.212;2023-05-09T12:01:15;4.13;;;3.72;;
15104;SDS011;7653;48.994;9.212;2023-05-09T12:03:45;5.18;;;4.28;;
15104;SDS011;7653;48.994;9.212;2023-05-09T12:06:15;4.47;;;3.55;;
15104;SDS011;7653;48.994;9.212;2023-05-09T12:08:42;4.93;;;3.72;;
15104;SDS011;7653;48.994;9.212;2023-05-09T12:11:12;6.30;;;4.03;;
15104;SDS011;7653;48.994;9.212;2023-05-09T12:16:14;4.25;;;3.85;;
15104;SDS011;7653;48.994;9.212;2023-05-09T12:18:50;4.95;;;3.97;;
15104;SDS011;7653;48.994;9.212;2023-05-09T12:21:17;4.82;;;4.22;;
15104;SDS011;7653;48.994;9.212;2023-05-09T12:23:44;5.45;;;4.25;;
15104;SDS011;7653;48.994;9.212;2023-05-09T12:26:11;5.13;;;4.68;;
15104;SDS011;7653;48.994;9.212;2023-05-09T12:28:37;5.95;;;5.35;;
15104;SDS011;7653;48.994;9.212;2023-05-09T12:31:04;5.13;;;4.22;;
15104;SDS011;7653;48.994;9.212;2023-05-09T12:33:30;4.35;;;3.88;;
15104;SDS011;7653;48.994;9.212;2023-05-09T12:36:03;4.43;;;4.00;;
15104;SDS011;7653;48.994;9.212;2023-05-09T12:38:30;4.90;;;4.50;;
15104;SDS011;7653;48.994;9.212;2023-05-09T12:40:59;4.97;;;4.50;;
15104;SDS011;7653;48.994;9.212;2023-05-09T12:43:32;3.88;;;3.40;;
15104;SDS011;7653;48.994;9.212;2023-05-09T12:45:59;4.70;;;4.00;;
15104;SDS011;7653;48.994;9.212;2023-05-09T12:48:26;4.18;;;3.78;;
15104;SDS011;7653;48.994;9.212;2023-05-09T12:50:52;4.95;;;4.20;;
15104;SDS011;7653;48.994;9.212;2023-05-09T12:53:27;5.38;;;4.00;;
15104;SDS011;7653;48.994;9.212;2023-05-09T12:56:02;4.45;;;3.83;;
15104;SDS011;7653;48.994;9.212;2023-05-09T12:58:29;4.65;;;4.25;;
15104;SDS011;7653;48.994;9.212;2023-05-09T13:00:56;4.80;;;4.40;;
15104;SDS011;7653;48.994;9.212;2023-05-09T13:03:26;4.60;;;4.20;;
15104;SDS011;7653;48.994;9.212;2023-05-09T13:05:55;4.68;;;4.28;;
15104;SDS011;7653;48.994;9.212;2023-05-09T13:08:22;4.50;;;4.10;;
15104;SDS011;7653;48.994;9.212;2023-05-09T13:10:48;4.78;;;4.38;;
15104;SDS011;7653;48.994;9.212;2023-05-09T13:13:14;5.60;;;4.22;;
15104;SDS011;7653;48.994;9.212;2023-05-09T13:15:40;6.47;;;5.20;;
15104;SDS011;7653;48.994;9.212;2023-05-09T13:18:07;5.30;;;4.80;;
15104;SDS011;7653;48.994;9.212;2023-05-09T13:20:32;4.78;;;4.13;;
15104;SDS011;7653;48.994;9.212;2023-05-09T13:22:58;5.07;;;4.57;;
15104;SDS011;7653;48.994;9.212;2023-05-09T13:25:23;6.05;;;4.80;;
15104;SDS011;7653;48.994;9.212;2023-05-09T13:27:49;5.13;;;4.63;;
15104;SDS011;7653;48.994;9.212;2023-05-09T13:30:15;5.35;;;4.47;;
15104;SDS011;7653;48.994;9.212;2023-05-09T13:32:42;4.85;;;4.43;;
15104;SDS011;7653;48.994;9.212;2023-05-09T13:35:08;5.05;;;4.55;;
15104;SDS011;7653;48.994;9.212;2023-05-09T13:37:33;6.50;;;4.25;;
15104;SDS011;7653;48.994;9.212;2023-05-09T13:39:59;5.20;;;4.07;;
15104;SDS011;7653;48.994;9.212;2023-05-09T13:42:26;4.80;;;4.18;;
15104;SDS011;7653;48.994;9.212;2023-05-09T13:44:52;6.57;;;4.55;;
15104;SDS011;7653;48.994;9.212;2023-05-09T13:47:17;9.98;;;8.02;;
15104;SDS011;7653;48.994;9.212;2023-05-09T13:49:43;5.85;;;3.80;;
15104;SDS011;7653;48.994;9.212;2023-05-09T13:52:09;6.70;;;4.10;;
15104;SDS011;7653;48.994;9.212;2023-05-09T13:54:34;4.93;;;4.10;;
15104;SDS011;7653;48.994;9.212;2023-05-09T13:57:01;4.80;;;4.30;;
15104;SDS011;7653;48.994;9.212;2023-05-09T13:59:28;6.35;;;5.75;;
15104;SDS011;7653;48.994;9.212;2023-05-09T14:01:57;7.38;;;4.47;;
15104;SDS011;7653;48.994;9.212;2023-05-09T14:04:24;4.85;;;3.40;;
15104;SDS011;7653;48.994;9.212;2023-05-09T14:06:50;5.03;;;3.90;;
15104;SDS011;7653;48.994;9.212;2023-05-09T14:09:17;10.15;;;5.15;;
15104;SDS011;7653;48.994;9.212;2023-05-09T14:11:43;5.55;;;4.07;;
15104;SDS011;7653;48.994;9.212;2023-05-09T14:14:09;3.83;;;3.45;;
15104;SDS011;7653;48.994;9.212;2023-05-09T14:16:35;3.63;;;3.08;;
15104;SDS011;7653;48.994;9.212;2023-05-09T14:19:01;4.72;;;3.30;;
15104;SDS011;7653;48.994;9.212;2023-05-09T14:21:26;3.65;;;3.10;;
15104;SDS011;7653;48.994;9.212;2023-05-09T14:23:52;3.58;;;3.15;;
15104;SDS011;7653;48.994;9.212;2023-05-09T14:26:18;3.50;;;3.20;;
15104;SDS011;7653;48.994;9.212;2023-05-09T14:28:44;4.35;;;3.70;;
15104;SDS011;7653;48.994;9.212;2023-05-09T14:31:09;3.40;;;3.10;;
15104;SDS011;7653;48.994;9.212;2023-05-09T14:33:36;5.13;;;3.28;;
15104;SDS011;7653;48.994;9.212;2023-05-09T14:36:02;3.80;;;3.22;;
15104;SDS011;7653;48.994;9.212;2023-05-09T14:38:28;6.38;;;3.38;;
15104;SDS011;7653;48.994;9.212;2023-05-09T14:40:54;4.63;;;3.28;;
15104;SDS011;7653;48.994;9.212;2023-05-09T14:43:20;3.25;;;3.00;;
15104;SDS011;7653;48.994;9.212;2023-05-09T14:45:46;5.43;;;3.60;;
15104;SDS011;7653;48.994;9.212;2023-05-09T14:48:12;4.40;;;3.20;;
15104;SDS011;7653;48.994;9.212;2023-05-09T14:50:38;5.57;;;3.47;;
15104;SDS011;7653;48.994;9.212;2023-05-09T14:53:04;4.55;;;3.08;;
15104;SDS011;7653;48.994;9.212;2023-05-09T14:55:30;4.97;;;3.17;;
15104;SDS011;7653;48.994;9.212;2023-05-09T14:57:56;3.83;;;2.90;;
15104;SDS011;7653;48.994;9.212;2023-05-09T15:00:22;4.40;;;3.03;;
15104;SDS011;7653;48.994;9.212;2023-05-09T15:02:49;4.50;;;3.30;;
15104;SDS011;7653;48.994;9.212;2023-05-09T15:05:15;3.80;;;3.10;;
15104;SDS011;7653;48.994;9.212;2023-05-09T15:07:41;3.30;;;3.00;;
15104;SDS011;7653;48.994;9.212;2023-05-09T15:10:07;7.13;;;3.50;;
15104;SDS011;7653;48.994;9.212;2023-05-09T15:12:33;6.13;;;3.27;;
15104;SDS011;7653;48.994;9.212;2023-05-09T15:15:12;7.80;;;3.37;;
15104;SDS011;7653;48.994;9.212;2023-05-09T15:17:38;6.10;;;3.40;;
15104;SDS011;7653;48.994;9.212;2023-05-09T15:20:04;4.67;;;3.27;;
15104;SDS011;7653;48.994;9.212;2023-05-09T15:22:30;5.67;;;2.97;;
15104;SDS011;7653;48.994;9.212;2023-05-09T15:24:58;3.60;;;2.77;;